sensor_id;sensor_type;location;lat;lon;timestamp;P1;durP1;ratioP1;P2;durP2;ratioP2
2386;SDS011;49473;50.772;8.768;2023-02-12T00:00:11;34.97;;;25.07;;
2386;SDS011;49473;50.772;8.768;2023-02-12T00:02:39;39.87;;;24.90;;
2386;SDS011;49473;50.772;8.768;2023-02-12T00:05:06;39.00;;;26.93;;
2386;SDS011;49473;50.772;8.768;2023-02-12T00:07:33;38.73;;;25.27;;
2386;SDS011;49473;50.772;8.768;2023-02-12T00:10:00;34.33;;;24.47;;
2386;SDS011;49473;50.772;8.768;2023-02-12T00:12:28;34.40;;;24.77;;
2386;SDS011;49473;50.772;8.768;2023-02-12T00:14:54;27.87;;;21.77;;
2386;SDS011;49473;50.772;8.768;2023-02-12T00:17:21;29.37;;;22.80;;
2386;SDS011;49473;50.772;8.768;2023-02-12T00:19:48;40.23;;;26.30;;
2386;SDS011;49473;50.772;8.768;2023-02-12T00:22:15;28.70;;;23.30;;
2386;SDS011;49473;50.772;8.768;2023-02-12T00:24:41;36.80;;;25.90;;
2386;SDS011;49473;50.772;8.768;2023-02-12T00:27:08;34.20;;;26.23;;
2386;SDS011;49473;50.772;8.768;2023-02-12T00:29:37;38.77;;;26.50;;
2386;SDS011;49473;50.772;8.768;2023-02-12T00:32:03;29.93;;;22.67;;
2386;SDS011;49473;50.772;8.768;2023-02-12T00:34:30;28.33;;;21.43;;
2386;SDS011;49473;50.772;8.768;2023-02-12T00:36:57;32.57;;;23.23;;
2386;SDS011;49473;50.772;8.768;2023-02-12T00:39:24;31.80;;;23.10;;
2386;SDS011;49473;50.772;8.768;2023-02-12T00:41:50;31.57;;;23.97;;
2386;SDS011;49473;50.772;8.768;2023-02-12T00:44:17;31.40;;;23.13;;
2386;SDS011;49473;50.772;8.768;2023-02-12T00:46:45;39.57;;;28.43;;
2386;SDS011;49473;50.772;8.768;2023-02-12T00:49:12;35.83;;;25.03;;
2386;SDS011;49473;50.772;8.768;2023-02-12T00:51:40;34.20;;;24.40;;
2386;SDS011;49473;50.772;8.768;2023-02-12T00:54:06;38.63;;;26.47;;
2386;SDS011;49473;50.772;8.768;2023-02-12T00:56:33;36.53;;;26.23;;
2386;SDS011;49473;50.772;8.768;2023-02-12T00:59:00;29.27;;;22.20;;
2386;SDS011;49473;50.772;8.768;2023-02-12T01:01:26;27.77;;;21.40;;
2386;SDS011;49473;50.772;8.768;2023-02-12T01:03:54;32.90;;;22.50;;
2386;SDS011;49473;50.772;8.768;2023-02-12T01:06:21;31.70;;;21.20;;
2386;SDS011;49473;50.772;8.768;2023-02-12T01:08:49;28.73;;;21.90;;
2386;SDS011;49473;50.772;8.768;2023-02-12T01:11:16;33.87;;;23.40;;
2386;SDS011;49473;50.772;8.768;2023-02-12T01:13:43;32.47;;;23.73;;
2386;SDS011;49473;50.772;8.768;2023-02-12T01:16:12;28.10;;;20.60;;
2386;SDS011;49473;50.772;8.768;2023-02-12T01:18:40;29.80;;;20.77;;
2386;SDS011;49473;50.772;8.768;2023-02-12T01:21:09;31.50;;;22.03;;
2386;SDS011;49473;50.772;8.768;2023-02-12T01:23:36;30.50;;;21.10;;
2386;SDS011;49473;50.772;8.768;2023-02-12T01:26:03;34.77;;;22.53;;
2386;SDS011;49473;50.772;8.768;2023-02-12T01:28:31;28.10;;;21.00;;
2386;SDS011;49473;50.772;8.768;2023-02-12T01:30:58;32.23;;;22.47;;
2386;SDS011;49473;50.772;8.768;2023-02-12T01:33:24;36.87;;;24.50;;
2386;SDS011;49473;50.772;8.768;2023-02-12T01:35:51;36.87;;;25.97;;
2386;SDS011;49473;50.772;8.768;2023-02-12T01:38:19;40.90;;;26.10;;
2386;SDS011;49473;50.772;8.768;2023-02-12T01:40:46;36.07;;;22.93;;
2386;SDS011;49473;50.772;8.768;2023-02-12T01:43:13;34.37;;;21.57;;
2386;SDS011;49473;50.772;8.768;2023-02-12T01:45:44;30.07;;;20.53;;
2386;SDS011;49473;50.772;8.768;2023-02-12T01:48:13;34.73;;;23.80;;
2386;SDS011;49473;50.772;8.768;2023-02-12T01:50:41;37.53;;;26.00;;
2386;SDS011;49473;50.772;8.768;2023-02-12T01:53:09;39.30;;;24.37;;
2386;SDS011;49473;50.772;8.768;2023-02-12T01:55:38;29.87;;;24.33;;
2386;SDS011;49473;50.772;8.768;2023-02-12T01:58:07;33.50;;;22.87;;
2386;SDS011;49473;50.772;8.768;2023-02-12T02:00:35;31.23;;;23.47;;
2386;SDS011;49473;50.772;8.768;2023-02-12T02:03:01;31.43;;;21.17;;
2386;SDS011;49473;50.772;8.768;2023-02-12T02:05:30;29.67;;;20.70;;
2386;SDS011;49473;50.772;8.768;2023-02-12T02:08:06;30.37;;;21.20;;
2386;SDS011;49473;50.772;8.768;2023-02-12T02:10:33;33.97;;;21.87;;
2386;SDS011;49473;50.772;8.768;2023-02-12T02:13:01;34.20;;;23.07;;
2386;SDS011;49473;50.772;8.768;2023-02-12T02:15:46;35.47;;;22.07;;
2386;SDS011;49473;50.772;8.768;2023-02-12T02:18:16;38.03;;;22.07;;
2386;SDS011;49473;50.772;8.768;2023-02-12T02:20:54;29.90;;;20.40;;
2386;SDS011;49473;50.772;8.768;2023-02-12T02:23:58;30.30;;;21.43;;
2386;SDS011;49473;50.772;8.768;2023-02-12T02:26:49;32.13;;;21.67;;
2386;SDS011;49473;50.772;8.768;2023-02-12T02:29:30;33.13;;;22.30;;
2386;SDS011;49473;50.772;8.768;2023-02-12T02:32:11;32.17;;;21.57;;
2386;SDS011;49473;50.772;8.768;2023-02-12T02:34:46;30.23;;;20.23;;
2386;SDS011;49473;50.772;8.768;2023-02-12T02:37:16;31.50;;;21.03;;
2386;SDS011;49473;50.772;8.768;2023-02-12T02:39:50;33.53;;;22.07;;
2386;SDS011;49473;50.772;8.768;2023-02-12T02:42:22;33.77;;;21.07;;
2386;SDS011;49473;50.772;8.768;2023-02-12T02:44:53;26.30;;;20.10;;
2386;SDS011;49473;50.772;8.768;2023-02-12T02:47:25;29.33;;;20.80;;
2386;SDS011;49473;50.772;8.768;2023-02-12T02:49:58;28.57;;;20.27;;
2386;SDS011;49473;50.772;8.768;2023-02-12T02:52:30;31.97;;;21.43;;
2386;SDS011;49473;50.772;8.768;2023-02-12T02:55:02;29.93;;;20.87;;
2386;SDS011;49473;50.772;8.768;2023-02-12T02:57:34;24.97;;;19.17;;
2386;SDS011;49473;50.772;8.768;2023-02-12T03:00:06;27.80;;;19.40;;
2386;SDS011;49473;50.772;8.768;2023-02-12T03:02:39;28.30;;;19.37;;
2386;SDS011;49473;50.772;8.768;2023-02-12T03:05:11;31.07;;;20.43;;
2386;SDS011;49473;50.772;8.768;2023-02-12T03:07:43;27.30;;;19.10;;
2386;SDS011;49473;50.772;8.768;2023-02-12T03:10:14;25.90;;;17.83;;
2386;SDS011;49473;50.772;8.768;2023-02-12T03:12:44;27.07;;;19.57;;
2386;SDS011;49473;50.772;8.768;2023-02-12T03:15:17;34.50;;;21.43;;
2386;SDS011;49473;50.772;8.768;2023-02-12T03:17:49;31.17;;;19.17;;
2386;SDS011;49473;50.772;8.768;2023-02-12T03:20:17;28.60;;;19.90;;
2386;SDS011;49473;50.772;8.768;2023-02-12T03:22:48;30.60;;;20.63;;
2386;SDS011;49473;50.772;8.768;2023-02-12T03:25:19;28.87;;;19.40;;
2386;SDS011;49473;50.772;8.768;2023-02-12T03:27:51;33.00;;;20.03;;
2386;SDS011;49473;50.772;8.768;2023-02-12T03:30:28;27.63;;;18.73;;
2386;SDS011;49473;50.772;8.768;2023-02-12T03:33:07;29.13;;;19.07;;
2386;SDS011;49473;50.772;8.768;2023-02-12T03:35:43;26.73;;;19.10;;
2386;SDS011;49473;50.772;8.768;2023-02-12T03:38:20;33.50;;;21.30;;
2386;SDS011;49473;50.772;8.768;2023-02-12T03:40:55;33.30;;;21.83;;
2386;SDS011;49473;50.772;8.768;2023-02-12T03:43:26;33.33;;;20.37;;
2386;SDS011;49473;50.772;8.768;2023-02-12T03:46:06;32.90;;;20.53;;
2386;SDS011;49473;50.772;8.768;2023-02-12T03:48:43;35.60;;;21.30;;
2386;SDS011;49473;50.772;8.768;2023-02-12T03:51:19;30.77;;;20.30;;
2386;SDS011;49473;50.772;8.768;2023-02-12T03:53:49;31.60;;;21.23;;
2386;SDS011;49473;50.772;8.768;2023-02-12T03:56:16;39.37;;;22.43;;
2386;SDS011;49473;50.772;8.768;2023-02-12T03:58:47;31.70;;;20.40;;
2386;SDS011;49473;50.772;8.768;2023-02-12T04:01:14;29.93;;;20.67;;
2386;SDS011;49473;50.772;8.768;2023-02-12T04:03:40;27.17;;;20.10;;
2386;SDS011;49473;50.772;8.768;2023-02-12T04:06:19;32.93;;;20.97;;
2386;SDS011;49473;50.772;8.768;2023-02-12T04:08:46;30.63;;;20.40;;
2386;SDS011;49473;50.772;8.768;2023-02-12T04:11:16;28.17;;;20.63;;
2386;SDS011;49473;50.772;8.768;2023-02-12T04:13:52;37.87;;;22.00;;
2386;SDS011;49473;50.772;8.768;2023-02-12T04:16:28;38.37;;;23.30;;
2386;SDS011;49473;50.772;8.768;2023-02-12T04:19:03;37.03;;;22.97;;
2386;SDS011;49473;50.772;8.768;2023-02-12T04:21:35;31.40;;;20.80;;
2386;SDS011;49473;50.772;8.768;2023-02-12T04:24:11;29.97;;;21.30;;
2386;SDS011;49473;50.772;8.768;2023-02-12T04:26:51;31.17;;;21.27;;
2386;SDS011;49473;50.772;8.768;2023-02-12T04:29:24;33.70;;;20.93;;
2386;SDS011;49473;50.772;8.768;2023-02-12T04:31:59;37.10;;;21.20;;
2386;SDS011;49473;50.772;8.768;2023-02-12T04:34:32;34.90;;;20.67;;
2386;SDS011;49473;50.772;8.768;2023-02-12T04:37:03;32.87;;;21.13;;
2386;SDS011;49473;50.772;8.768;2023-02-12T04:39:36;36.30;;;22.00;;
2386;SDS011;49473;50.772;8.768;2023-02-12T04:42:04;33.17;;;22.07;;
2386;SDS011;49473;50.772;8.768;2023-02-12T04:44:32;35.57;;;22.50;;
2386;SDS011;49473;50.772;8.768;2023-02-12T04:47:02;35.63;;;21.33;;
2386;SDS011;49473;50.772;8.768;2023-02-12T04:49:28;42.83;;;24.70;;
2386;SDS011;49473;50.772;8.768;2023-02-12T04:51:57;41.93;;;23.73;;
2386;SDS011;49473;50.772;8.768;2023-02-12T04:54:23;40.50;;;23.13;;
2386;SDS011;49473;50.772;8.768;2023-02-12T04:56:50;34.10;;;21.53;;
2386;SDS011;49473;50.772;8.768;2023-02-12T04:59:17;32.77;;;20.93;;
2386;SDS011;49473;50.772;8.768;2023-02-12T05:01:44;29.90;;;19.73;;
2386;SDS011;49473;50.772;8.768;2023-02-12T05:04:12;30.50;;;19.87;;
2386;SDS011;49473;50.772;8.768;2023-02-12T05:06:40;30.17;;;20.40;;
2386;SDS011;49473;50.772;8.768;2023-02-12T05:09:10;32.90;;;21.43;;
2386;SDS011;49473;50.772;8.768;2023-02-12T05:11:39;27.40;;;19.37;;
2386;SDS011;49473;50.772;8.768;2023-02-12T05:14:06;33.03;;;19.87;;
2386;SDS011;49473;50.772;8.768;2023-02-12T05:16:33;34.10;;;20.90;;
2386;SDS011;49473;50.772;8.768;2023-02-12T05:19:00;32.00;;;20.60;;
2386;SDS011;49473;50.772;8.768;2023-02-12T05:21:26;30.03;;;21.13;;
2386;SDS011;49473;50.772;8.768;2023-02-12T05:23:53;34.70;;;20.90;;
2386;SDS011;49473;50.772;8.768;2023-02-12T05:26:21;31.43;;;20.77;;
2386;SDS011;49473;50.772;8.768;2023-02-12T05:28:48;33.93;;;21.53;;
2386;SDS011;49473;50.772;8.768;2023-02-12T05:31:16;35.57;;;21.07;;
2386;SDS011;49473;50.772;8.768;2023-02-12T05:33:44;34.00;;;22.70;;
2386;SDS011;49473;50.772;8.768;2023-02-12T05:36:13;36.63;;;22.47;;
2386;SDS011;49473;50.772;8.768;2023-02-12T05:38:41;34.23;;;22.67;;
2386;SDS011;49473;50.772;8.768;2023-02-12T05:41:11;35.80;;;23.60;;
2386;SDS011;49473;50.772;8.768;2023-02-12T05:43:40;30.77;;;20.13;;
2386;SDS011;49473;50.772;8.768;2023-02-12T05:46:08;34.50;;;23.10;;
2386;SDS011;49473;50.772;8.768;2023-02-12T05:48:36;34.07;;;21.70;;
2386;SDS011;49473;50.772;8.768;2023-02-12T05:51:04;40.13;;;23.27;;
2386;SDS011;49473;50.772;8.768;2023-02-12T05:53:32;34.33;;;21.43;;
2386;SDS011;49473;50.772;8.768;2023-02-12T05:56:07;33.40;;;22.07;;
2386;SDS011;49473;50.772;8.768;2023-02-12T05:58:38;35.97;;;22.23;;
2386;SDS011;49473;50.772;8.768;2023-02-12T06:01:08;30.60;;;21.03;;
2386;SDS011;49473;50.772;8.768;2023-02-12T06:03:37;35.17;;;22.27;;
2386;SDS011;49473;50.772;8.768;2023-02-12T06:06:04;32.10;;;22.50;;
2386;SDS011;49473;50.772;8.768;2023-02-12T06:08:31;37.47;;;22.23;;
2386;SDS011;49473;50.772;8.768;2023-02-12T06:10:58;31.03;;;22.10;;
2386;SDS011;49473;50.772;8.768;2023-02-12T06:13:26;34.60;;;23.77;;
2386;SDS011;49473;50.772;8.768;2023-02-12T06:15:54;32.37;;;22.13;;
2386;SDS011;49473;50.772;8.768;2023-02-12T06:18:21;33.73;;;23.50;;
2386;SDS011;49473;50.772;8.768;2023-02-12T06:20:48;40.10;;;24.07;;
2386;SDS011;49473;50.772;8.768;2023-02-12T06:23:15;37.77;;;22.87;;
2386;SDS011;49473;50.772;8.768;2023-02-12T06:25:42;36.47;;;23.20;;
2386;SDS011;49473;50.772;8.768;2023-02-12T06:28:08;34.40;;;23.67;;
2386;SDS011;49473;50.772;8.768;2023-02-12T06:30:35;38.90;;;24.43;;
2386;SDS011;49473;50.772;8.768;2023-02-12T06:33:03;37.27;;;26.47;;
2386;SDS011;49473;50.772;8.768;2023-02-12T06:35:30;40.93;;;24.87;;
2386;SDS011;49473;50.772;8.768;2023-02-12T06:37:56;40.83;;;23.97;;
2386;SDS011;49473;50.772;8.768;2023-02-12T06:40:23;38.47;;;24.90;;
2386;SDS011;49473;50.772;8.768;2023-02-12T06:42:50;37.83;;;25.50;;
2386;SDS011;49473;50.772;8.768;2023-02-12T06:45:17;37.80;;;24.17;;
2386;SDS011;49473;50.772;8.768;2023-02-12T06:47:43;35.90;;;23.47;;
2386;SDS011;49473;50.772;8.768;2023-02-12T06:50:11;44.50;;;23.60;;
2386;SDS011;49473;50.772;8.768;2023-02-12T06:52:41;40.67;;;23.67;;
2386;SDS011;49473;50.772;8.768;2023-02-12T06:55:08;39.97;;;23.80;;
2386;SDS011;49473;50.772;8.768;2023-02-12T06:57:34;43.43;;;25.00;;
2386;SDS011;49473;50.772;8.768;2023-02-12T07:00:01;39.30;;;24.30;;
2386;SDS011;49473;50.772;8.768;2023-02-12T07:02:28;46.20;;;27.60;;
2386;SDS011;49473;50.772;8.768;2023-02-12T07:04:55;49.23;;;28.53;;
2386;SDS011;49473;50.772;8.768;2023-02-12T07:07:23;45.77;;;27.13;;
2386;SDS011;49473;50.772;8.768;2023-02-12T07:09:50;41.60;;;25.53;;
2386;SDS011;49473;50.772;8.768;2023-02-12T07:12:17;47.83;;;27.40;;
2386;SDS011;49473;50.772;8.768;2023-02-12T07:14:44;45.37;;;26.07;;
2386;SDS011;49473;50.772;8.768;2023-02-12T07:17:11;53.37;;;28.30;;
2386;SDS011;49473;50.772;8.768;2023-02-12T07:19:38;47.70;;;27.13;;
2386;SDS011;49473;50.772;8.768;2023-02-12T07:22:04;54.50;;;27.97;;
2386;SDS011;49473;50.772;8.768;2023-02-12T07:24:32;48.63;;;27.30;;
2386;SDS011;49473;50.772;8.768;2023-02-12T07:26:59;48.97;;;27.70;;
2386;SDS011;49473;50.772;8.768;2023-02-12T07:29:26;46.70;;;25.43;;
2386;SDS011;49473;50.772;8.768;2023-02-12T07:31:52;51.80;;;27.70;;
2386;SDS011;49473;50.772;8.768;2023-02-12T07:34:19;54.10;;;28.43;;
2386;SDS011;49473;50.772;8.768;2023-02-12T07:36:46;44.80;;;28.00;;
2386;SDS011;49473;50.772;8.768;2023-02-12T07:39:12;59.00;;;29.20;;
2386;SDS011;49473;50.772;8.768;2023-02-12T07:41:40;43.00;;;24.90;;
2386;SDS011;49473;50.772;8.768;2023-02-12T07:44:08;51.07;;;26.23;;
2386;SDS011;49473;50.772;8.768;2023-02-12T07:46:37;48.03;;;27.83;;
2386;SDS011;49473;50.772;8.768;2023-02-12T07:49:06;41.23;;;25.03;;
2386;SDS011;49473;50.772;8.768;2023-02-12T07:51:36;45.60;;;24.80;;
2386;SDS011;49473;50.772;8.768;2023-02-12T07:54:03;55.33;;;29.20;;
2386;SDS011;49473;50.772;8.768;2023-02-12T07:56:31;57.33;;;28.33;;
2386;SDS011;49473;50.772;8.768;2023-02-12T07:59:01;59.67;;;30.27;;
2386;SDS011;49473;50.772;8.768;2023-02-12T08:01:30;53.73;;;29.60;;
2386;SDS011;49473;50.772;8.768;2023-02-12T08:03:58;56.03;;;30.23;;
2386;SDS011;49473;50.772;8.768;2023-02-12T08:06:27;52.30;;;30.80;;
2386;SDS011;49473;50.772;8.768;2023-02-12T08:08:56;48.03;;;28.10;;
2386;SDS011;49473;50.772;8.768;2023-02-12T08:11:24;47.27;;;29.47;;
2386;SDS011;49473;50.772;8.768;2023-02-12T08:13:52;52.20;;;28.40;;
2386;SDS011;49473;50.772;8.768;2023-02-12T08:16:22;49.00;;;28.30;;
2386;SDS011;49473;50.772;8.768;2023-02-12T08:18:49;47.80;;;30.40;;
2386;SDS011;49473;50.772;8.768;2023-02-12T08:21:18;47.40;;;30.10;;
2386;SDS011;49473;50.772;8.768;2023-02-12T08:23:47;56.00;;;31.70;;
2386;SDS011;49473;50.772;8.768;2023-02-12T08:26:15;56.50;;;31.40;;
2386;SDS011;49473;50.772;8.768;2023-02-12T08:28:44;51.50;;;30.70;;
2386;SDS011;49473;50.772;8.768;2023-02-12T08:31:14;51.53;;;31.00;;
2386;SDS011;49473;50.772;8.768;2023-02-12T08:33:45;48.17;;;29.10;;
2386;SDS011;49473;50.772;8.768;2023-02-12T08:36:14;54.80;;;30.73;;
2386;SDS011;49473;50.772;8.768;2023-02-12T08:38:43;50.57;;;31.13;;
2386;SDS011;49473;50.772;8.768;2023-02-12T08:41:11;48.53;;;31.90;;
2386;SDS011;49473;50.772;8.768;2023-02-12T08:43:39;56.20;;;32.97;;
2386;SDS011;49473;50.772;8.768;2023-02-12T08:46:07;53.27;;;32.23;;
2386;SDS011;49473;50.772;8.768;2023-02-12T08:48:36;57.13;;;31.30;;
2386;SDS011;49473;50.772;8.768;2023-02-12T08:51:06;51.60;;;31.03;;
2386;SDS011;49473;50.772;8.768;2023-02-12T08:53:34;52.67;;;29.90;;
2386;SDS011;49473;50.772;8.768;2023-02-12T08:56:02;53.83;;;32.47;;
2386;SDS011;49473;50.772;8.768;2023-02-12T08:58:29;53.93;;;31.63;;
2386;SDS011;49473;50.772;8.768;2023-02-12T09:00:56;59.07;;;34.00;;
2386;SDS011;49473;50.772;8.768;2023-02-12T09:03:23;54.97;;;32.77;;
2386;SDS011;49473;50.772;8.768;2023-02-12T09:05:50;50.43;;;31.23;;
2386;SDS011;49473;50.772;8.768;2023-02-12T09:08:18;54.10;;;32.27;;
2386;SDS011;49473;50.772;8.768;2023-02-12T09:10:45;53.60;;;33.00;;
2386;SDS011;49473;50.772;8.768;2023-02-12T09:13:13;55.10;;;33.47;;
2386;SDS011;49473;50.772;8.768;2023-02-12T09:15:40;49.83;;;30.60;;
2386;SDS011;49473;50.772;8.768;2023-02-12T09:18:08;47.53;;;31.30;;
2386;SDS011;49473;50.772;8.768;2023-02-12T09:20:36;56.03;;;32.87;;
2386;SDS011;49473;50.772;8.768;2023-02-12T09:23:04;46.17;;;30.27;;
2386;SDS011;49473;50.772;8.768;2023-02-12T09:25:33;52.17;;;32.90;;
2386;SDS011;49473;50.772;8.768;2023-02-12T09:28:05;50.50;;;31.93;;
2386;SDS011;49473;50.772;8.768;2023-02-12T09:30:31;53.50;;;32.90;;
2386;SDS011;49473;50.772;8.768;2023-02-12T09:32:58;59.70;;;34.73;;
2386;SDS011;49473;50.772;8.768;2023-02-12T09:35:25;59.40;;;36.53;;
2386;SDS011;49473;50.772;8.768;2023-02-12T09:37:52;69.27;;;40.17;;
2386;SDS011;49473;50.772;8.768;2023-02-12T09:40:20;62.60;;;40.17;;
2386;SDS011;49473;50.772;8.768;2023-02-12T09:42:53;55.00;;;35.33;;
2386;SDS011;49473;50.772;8.768;2023-02-12T09:45:38;59.20;;;35.80;;
2386;SDS011;49473;50.772;8.768;2023-02-12T09:48:13;52.20;;;33.63;;
2386;SDS011;49473;50.772;8.768;2023-02-12T09:50:55;48.40;;;31.20;;
2386;SDS011;49473;50.772;8.768;2023-02-12T09:53:24;44.43;;;27.90;;
2386;SDS011;49473;50.772;8.768;2023-02-12T09:55:53;45.07;;;30.17;;
2386;SDS011;49473;50.772;8.768;2023-02-12T09:58:23;41.70;;;29.33;;
2386;SDS011;49473;50.772;8.768;2023-02-12T10:00:56;41.00;;;27.83;;
2386;SDS011;49473;50.772;8.768;2023-02-12T10:03:23;41.53;;;27.80;;
2386;SDS011;49473;50.772;8.768;2023-02-12T10:05:54;39.90;;;28.10;;
2386;SDS011;49473;50.772;8.768;2023-02-12T10:08:31;37.27;;;26.77;;
2386;SDS011;49473;50.772;8.768;2023-02-12T10:11:22;36.23;;;25.70;;
2386;SDS011;49473;50.772;8.768;2023-02-12T10:14:07;42.37;;;28.43;;
2386;SDS011;49473;50.772;8.768;2023-02-12T10:16:48;35.30;;;24.20;;
2386;SDS011;49473;50.772;8.768;2023-02-12T10:19:31;36.00;;;25.57;;
2386;SDS011;49473;50.772;8.768;2023-02-12T10:22:16;26.93;;;21.37;;
2386;SDS011;49473;50.772;8.768;2023-02-12T10:24:53;31.50;;;22.77;;
2386;SDS011;49473;50.772;8.768;2023-02-12T10:27:34;29.87;;;22.50;;
2386;SDS011;49473;50.772;8.768;2023-02-12T10:30:12;26.23;;;20.87;;
2386;SDS011;49473;50.772;8.768;2023-02-12T10:32:43;32.07;;;23.57;;
2386;SDS011;49473;50.772;8.768;2023-02-12T10:35:13;27.10;;;20.70;;
2386;SDS011;49473;50.772;8.768;2023-02-12T10:37:42;25.70;;;20.20;;
2386;SDS011;49473;50.772;8.768;2023-02-12T10:40:15;24.60;;;20.13;;
2386;SDS011;49473;50.772;8.768;2023-02-12T10:42:46;24.50;;;18.03;;
2386;SDS011;49473;50.772;8.768;2023-02-12T10:45:16;24.30;;;19.43;;
2386;SDS011;49473;50.772;8.768;2023-02-12T10:47:45;21.70;;;16.70;;
2386;SDS011;49473;50.772;8.768;2023-02-12T10:50:16;23.03;;;16.97;;
2386;SDS011;49473;50.772;8.768;2023-02-12T10:52:50;22.50;;;17.17;;
2386;SDS011;49473;50.772;8.768;2023-02-12T10:55:27;19.50;;;15.63;;
2386;SDS011;49473;50.772;8.768;2023-02-12T10:57:55;19.60;;;14.83;;
2386;SDS011;49473;50.772;8.768;2023-02-12T11:00:25;18.07;;;13.27;;
2386;SDS011;49473;50.772;8.768;2023-02-12T11:03:00;15.20;;;12.10;;
2386;SDS011;49473;50.772;8.768;2023-02-12T11:05:30;21.17;;;15.13;;
2386;SDS011;49473;50.772;8.768;2023-02-12T11:07:58;19.80;;;13.63;;
2386;SDS011;49473;50.772;8.768;2023-02-12T11:10:27;16.03;;;12.10;;
2386;SDS011;49473;50.772;8.768;2023-02-12T11:12:55;16.10;;;12.50;;
2386;SDS011;49473;50.772;8.768;2023-02-12T11:15:26;15.97;;;12.30;;
2386;SDS011;49473;50.772;8.768;2023-02-12T11:17:57;15.03;;;11.03;;
2386;SDS011;49473;50.772;8.768;2023-02-12T11:20:26;14.87;;;9.67;;
2386;SDS011;49473;50.772;8.768;2023-02-12T11:22:55;10.37;;;8.50;;
2386;SDS011;49473;50.772;8.768;2023-02-12T11:25:25;8.57;;;7.10;;
2386;SDS011;49473;50.772;8.768;2023-02-12T11:28:04;7.83;;;7.03;;
2386;SDS011;49473;50.772;8.768;2023-02-12T11:30:54;11.43;;;8.10;;
2386;SDS011;49473;50.772;8.768;2023-02-12T11:33:24;10.37;;;8.70;;
2386;SDS011;49473;50.772;8.768;2023-02-12T11:35:53;10.10;;;8.40;;
2386;SDS011;49473;50.772;8.768;2023-02-12T11:38:23;9.20;;;7.93;;
2386;SDS011;49473;50.772;8.768;2023-02-12T11:41:00;11.10;;;7.70;;
2386;SDS011;49473;50.772;8.768;2023-02-12T11:43:31;8.33;;;7.33;;
2386;SDS011;49473;50.772;8.768;2023-02-12T11:46:03;9.83;;;7.47;;
2386;SDS011;49473;50.772;8.768;2023-02-12T11:48:32;11.00;;;7.97;;
2386;SDS011;49473;50.772;8.768;2023-02-12T11:51:04;10.70;;;7.77;;
2386;SDS011;49473;50.772;8.768;2023-02-12T11:53:34;7.57;;;6.77;;
2386;SDS011;49473;50.772;8.768;2023-02-12T11:56:04;8.20;;;6.93;;
2386;SDS011;49473;50.772;8.768;2023-02-12T11:58:33;7.93;;;6.90;;
2386;SDS011;49473;50.772;8.768;2023-02-12T12:01:06;7.50;;;6.17;;
2386;SDS011;49473;50.772;8.768;2023-02-12T12:03:42;7.13;;;6.00;;
2386;SDS011;49473;50.772;8.768;2023-02-12T12:06:22;8.50;;;6.10;;
2386;SDS011;49473;50.772;8.768;2023-02-12T12:08:59;6.60;;;6.00;;
2386;SDS011;49473;50.772;8.768;2023-02-12T12:11:33;8.27;;;6.40;;
2386;SDS011;49473;50.772;8.768;2023-02-12T12:14:07;6.87;;;6.17;;
2386;SDS011;49473;50.772;8.768;2023-02-12T12:16:43;7.63;;;6.60;;
2386;SDS011;49473;50.772;8.768;2023-02-12T12:19:37;5.87;;;4.90;;
2386;SDS011;49473;50.772;8.768;2023-02-12T12:25:09;6.27;;;5.33;;
2386;SDS011;49473;50.772;8.768;2023-02-12T12:27:47;7.00;;;5.70;;
2386;SDS011;49473;50.772;8.768;2023-02-12T12:33:21;4.90;;;3.23;;
2386;SDS011;49473;50.772;8.768;2023-02-12T12:36:03;6.03;;;4.40;;
2386;SDS011;49473;50.772;8.768;2023-02-12T12:38:55;4.53;;;3.47;;
2386;SDS011;49473;50.772;8.768;2023-02-12T12:41:30;7.83;;;5.93;;
2386;SDS011;49473;50.772;8.768;2023-02-12T12:44:09;6.10;;;5.27;;
2386;SDS011;49473;50.772;8.768;2023-02-12T12:46:52;8.90;;;7.10;;
2386;SDS011;49473;50.772;8.768;2023-02-12T12:49:35;8.13;;;7.07;;
2386;SDS011;49473;50.772;8.768;2023-02-12T12:55:13;9.03;;;7.70;;
2386;SDS011;49473;50.772;8.768;2023-02-12T12:57:50;7.70;;;6.37;;
2386;SDS011;49473;50.772;8.768;2023-02-12T13:00:29;9.60;;;7.40;;
2386;SDS011;49473;50.772;8.768;2023-02-12T13:03:28;9.83;;;7.47;;
2386;SDS011;49473;50.772;8.768;2023-02-12T13:06:18;8.77;;;7.50;;
2386;SDS011;49473;50.772;8.768;2023-02-12T13:09:07;9.77;;;8.40;;
2386;SDS011;49473;50.772;8.768;2023-02-12T13:11:47;9.90;;;7.63;;
2386;SDS011;49473;50.772;8.768;2023-02-12T13:14:24;9.07;;;7.93;;
2386;SDS011;49473;50.772;8.768;2023-02-12T13:17:02;9.63;;;7.50;;
2386;SDS011;49473;50.772;8.768;2023-02-12T13:19:40;11.07;;;8.83;;
2386;SDS011;49473;50.772;8.768;2023-02-12T13:22:19;10.27;;;8.33;;
2386;SDS011;49473;50.772;8.768;2023-02-12T13:24:49;11.47;;;8.97;;
2386;SDS011;49473;50.772;8.768;2023-02-12T13:27:25;10.27;;;8.20;;
2386;SDS011;49473;50.772;8.768;2023-02-12T13:29:57;18.70;;;13.27;;
2386;SDS011;49473;50.772;8.768;2023-02-12T13:32:31;11.07;;;8.10;;
2386;SDS011;49473;50.772;8.768;2023-02-12T13:35:03;11.00;;;8.27;;
2386;SDS011;49473;50.772;8.768;2023-02-12T13:37:34;11.63;;;8.60;;
2386;SDS011;49473;50.772;8.768;2023-02-12T13:40:04;10.63;;;8.23;;
2386;SDS011;49473;50.772;8.768;2023-02-12T13:42:36;8.83;;;7.87;;
2386;SDS011;49473;50.772;8.768;2023-02-12T13:45:14;8.27;;;7.17;;
2386;SDS011;49473;50.772;8.768;2023-02-12T13:47:49;8.67;;;6.67;;
2386;SDS011;49473;50.772;8.768;2023-02-12T13:50:29;9.30;;;7.63;;
2386;SDS011;49473;50.772;8.768;2023-02-12T13:53:06;10.30;;;7.83;;
2386;SDS011;49473;50.772;8.768;2023-02-12T13:55:48;9.67;;;8.20;;
2386;SDS011;49473;50.772;8.768;2023-02-12T13:58:39;11.43;;;8.90;;
2386;SDS011;49473;50.772;8.768;2023-02-12T14:01:35;10.67;;;9.00;;
2386;SDS011;49473;50.772;8.768;2023-02-12T14:04:15;10.67;;;8.53;;
2386;SDS011;49473;50.772;8.768;2023-02-12T14:06:51;11.40;;;9.07;;
2386;SDS011;49473;50.772;8.768;2023-02-12T14:09:21;10.73;;;8.93;;
2386;SDS011;49473;50.772;8.768;2023-02-12T14:11:54;11.33;;;9.80;;
2386;SDS011;49473;50.772;8.768;2023-02-12T14:14:25;12.33;;;9.33;;
2386;SDS011;49473;50.772;8.768;2023-02-12T14:16:54;10.80;;;8.97;;
2386;SDS011;49473;50.772;8.768;2023-02-12T14:25:39;9.53;;;7.27;;
2386;SDS011;49473;50.772;8.768;2023-02-12T14:37:17;11.60;;;8.00;;
2386;SDS011;49473;50.772;8.768;2023-02-12T14:49:15;12.70;;;9.00;;
2386;SDS011;49473;50.772;8.768;2023-02-12T14:51:49;13.77;;;9.97;;
2386;SDS011;49473;50.772;8.768;2023-02-12T14:54:21;12.13;;;8.83;;
2386;SDS011;49473;50.772;8.768;2023-02-12T14:56:53;11.37;;;9.00;;
2386;SDS011;49473;50.772;8.768;2023-02-12T14:59:23;11.87;;;8.67;;
2386;SDS011;49473;50.772;8.768;2023-02-12T15:01:51;12.83;;;9.03;;
2386;SDS011;49473;50.772;8.768;2023-02-12T15:04:20;11.93;;;9.77;;
2386;SDS011;49473;50.772;8.768;2023-02-12T15:06:52;11.40;;;9.20;;
2386;SDS011;49473;50.772;8.768;2023-02-12T15:09:25;11.43;;;8.60;;
2386;SDS011;49473;50.772;8.768;2023-02-12T15:11:57;12.27;;;9.53;;
2386;SDS011;49473;50.772;8.768;2023-02-12T15:14:30;14.87;;;10.20;;
2386;SDS011;49473;50.772;8.768;2023-02-12T15:17:01;12.33;;;9.90;;
2386;SDS011;49473;50.772;8.768;2023-02-12T15:19:36;10.43;;;8.73;;
2386;SDS011;49473;50.772;8.768;2023-02-12T15:22:16;11.20;;;9.30;;
2386;SDS011;49473;50.772;8.768;2023-02-12T15:24:45;16.70;;;11.60;;
2386;SDS011;49473;50.772;8.768;2023-02-12T15:27:12;15.00;;;10.60;;
2386;SDS011;49473;50.772;8.768;2023-02-12T15:29:41;11.57;;;9.97;;
2386;SDS011;49473;50.772;8.768;2023-02-12T15:32:14;14.43;;;9.97;;
2386;SDS011;49473;50.772;8.768;2023-02-12T15:34:44;11.77;;;9.97;;